Pagrindinis puslapis
METAR-TAF:

METAR-TAF

Oro uostai :

Longjyrbienas, Norvegija

platuma: 78-15N, ilguma: 015-28E, Aukštis: 2 m

Dabartinis oras

Ataskaita buvo paskelbta 12 minutes, ne 03:20 UTC
Vėjas 10 kt iš Rytų/Pietryčių
Temperatūra -14°C
Drėgmė 78%
Slėgis 988 hPa
Matomumas 10 km arba daugiau
nėra debesų žemiau 1500 m ir nėra kamuolinių lietaus debesų

METAR: ENSB 170320Z 11010KT CAVOK M14/M17 Q0988 RMK WIND 1400FT 08006KT

Laikas: 04:32 (03:32 UTC)

Prognozė

Prognozė galioja nuo 17 metu 00 UTC su 17 metu 24 UTC
Vėjas 8 kt iš Rytų/Pietryčių
Matomumas 10 km arba daugiau
Mažai debesys ne aukštis 2000 ft
Su prošvaistėmis ne aukštis 4000 ft
Laikinai
nuo 17 metu 12 UTC su 17 metu 24 UTC
Vėjas 12 kt iš Šiaurės Rytų

TAF: ENSB 1700/1724 12008KT 9999 FEW020 BKN040 TEMPO 1712/1724 04012KT

Orai ataskaitas ir orų prognozės (METAR, TAF).

turimą stotys yra geltonos ir raudonos taškus žemėlapyje.

Perkelti pele per norėdami pamatyti stoties vardą.

Tada spustelėkite, norėdami matyti oro stebėjimo ir prognozės.

Norėdami pakeisti žemėlapį: spustelėkite ant žalios mygtukų su juodo kryžiaus žemyn,; žalią mygtuką su brūkšneliu, jei norite nutolinti; arba žalių rodyklių gretimoms žemėlapius.


METAR-TAF: